Time;durP1;ratioP1;P1;durP2;ratioP2;P2;SDS_P1;SDS_P2;PMS_P1;PMS_P2;Temp;Humidity;BMP_temperature;BMP_pressure;BME280_temperature;BME280_humidity;BME280_pressure;Samples;Min_cycle;Max_cycle;Signal;HPM_P1;HPM_P2
2024/03/21 00:01:01;;;;;;;;;;;9.90;81.80;;;;;;5090885;28;19981;-66
2024/03/21 00:03:34;;;;;;;;;;;9.90;81.70;;;;;;5094160;28;20409;-67
2024/03/21 00:06:09;;;;;;;;;;;9.90;81.70;;;;;;5098446;28;20294;-65
2024/03/21 00:08:41;;;;;;;;;;;9.90;81.80;;;;;;5094216;28;20461;-65
2024/03/21 00:11:14;;;;;;;;;;;9.80;81.80;;;;;;5099422;28;19939;-68
2024/03/21 00:13:46;;;;;;;;;;;9.90;81.70;;;;;;5094709;28;19932;-67
2024/03/21 00:16:20;;;;;;;;;;;9.80;81.80;;;;;;5094612;28;19924;-66
2024/03/21 00:18:51;;;;;;;;;;;9.80;82.20;;;;;;5096594;28;19928;-66
2024/03/21 00:21:26;;;;;;;;;;;9.80;82.30;;;;;;5097715;28;19932;-67
2024/03/21 00:24:05;;;;;;;;;;;9.80;82.40;;;;;;5087724;28;20708;-67
2024/03/21 00:26:39;;;;;;;;;;;9.80;82.40;;;;;;5095738;28;19928;-66
2024/03/21 00:29:10;;;;;;;;;;;9.80;82.60;;;;;;5097982;28;19939;-67
2024/03/21 00:31:44;;;;;;;;;;;9.80;82.70;;;;;;5096426;28;19959;-67
2024/03/21 00:34:16;;;;;;;;;;;9.80;82.60;;;;;;5091168;28;19923;-66
2024/03/21 00:36:50;;;;;;;;;;;9.80;82.50;;;;;;5099670;28;19968;-66
2024/03/21 00:39:23;;;;;;;;;;;9.70;82.50;;;;;;5094247;28;20787;-66
2024/03/21 00:41:56;;;;;;;;;;;9.70;82.40;;;;;;5090657;28;19936;-65
2024/03/21 00:44:28;;;;;;;;;;;9.70;82.40;;;;;;5094906;28;19925;-65
2024/03/21 00:46:55;;;;;;;;;;;9.60;82.40;;;;;;5096937;28;19933;-66
2024/03/21 00:49:28;;;;;;;;;;;9.60;82.30;;;;;;5097386;28;19924;-65
2024/03/21 00:52:03;;;;;;;;;;;9.60;82.20;;;;;;5097258;28;19935;-65
2024/03/21 00:54:35;;;;;;;;;;;9.50;82.20;;;;;;5098862;28;19934;-66
2024/03/21 00:57:09;;;;;;;;;;;9.50;82.00;;;;;;5092743;28;19924;-66
2024/03/21 00:59:45;;;;;;;;;;;9.40;82.10;;;;;;5097807;28;19924;-66
2024/03/21 01:02:18;;;;;;;;;;;9.40;82.10;;;;;;5096786;28;20299;-61
2024/03/21 01:04:51;;;;;;;;;;;9.40;82.20;;;;;;5098629;28;20002;-61
2024/03/21 01:07:25;;;;;;;;;;;9.40;82.10;;;;;;5094730;28;19924;-62
2024/03/21 01:09:58;;;;;;;;;;;9.30;82.00;;;;;;5097251;28;19996;-63
2024/03/21 01:12:31;;;;;;;;;;;9.30;82.10;;;;;;5097368;28;19928;-61
2024/03/21 01:15:03;;;;;;;;;;;9.30;82.00;;;;;;5096241;28;19967;-61
2024/03/21 01:17:37;;;;;;;;;;;9.30;82.00;;;;;;5097047;28;20432;-61
2024/03/21 01:20:10;;;;;;;;;;;9.30;82.00;;;;;;5098314;28;20019;-61
2024/03/21 01:22:45;;;;;;;;;;;9.20;82.10;;;;;;5100704;28;19931;-60
2024/03/21 01:25:18;;;;;;;;;;;9.20;82.20;;;;;;5097264;28;19935;-61
2024/03/21 01:27:51;;;;;;;;;;;9.20;82.20;;;;;;5101927;28;20048;-62
2024/03/21 01:30:23;;;;;;;;;;;9.20;82.20;;;;;;5100703;28;19932;-62
2024/03/21 01:32:57;;;;;;;;;;;9.10;82.20;;;;;;5101861;28;19985;-62
2024/03/21 01:35:29;;;;;;;;;;;9.10;82.20;;;;;;5101004;28;19930;-61
2024/03/21 01:37:57;;;;;;;;;;;9.10;82.20;;;;;;5100671;28;19930;-62
2024/03/21 01:40:30;;;;;;;;;;;9.10;82.40;;;;;;5101530;28;19928;-62
2024/03/21 01:43:09;;;;;;;;;;;9.00;82.40;;;;;;5097453;28;20301;-62
2024/03/21 01:45:44;;;;;;;;;;;9.00;82.50;;;;;;5099146;28;19935;-61
2024/03/21 01:48:18;;;;;;;;;;;9.00;82.50;;;;;;5100143;28;19924;-61
2024/03/21 01:50:51;;;;;;;;;;;9.00;82.60;;;;;;5100291;28;20315;-61
2024/03/21 01:53:25;;;;;;;;;;;9.00;82.70;;;;;;5100312;28;19963;-62
2024/03/21 01:55:59;;;;;;;;;;;8.90;82.60;;;;;;5098759;28;20299;-62
2024/03/21 01:58:31;;;;;;;;;;;8.90;82.60;;;;;;5100030;28;19944;-61
2024/03/21 02:01:25;;;;;;;;;;;8.90;82.60;;;;;;5101040;28;19923;-61
2024/03/21 02:03:59;;;;;;;;;;;8.90;82.60;;;;;;5098102;28;20379;-61
2024/03/21 02:06:32;;;;;;;;;;;8.90;82.50;;;;;;5100913;28;19946;-62
2024/03/21 02:09:10;;;;;;;;;;;8.90;82.50;;;;;;5100803;28;20011;-61
2024/03/21 02:11:41;;;;;;;;;;;8.80;82.50;;;;;;5097399;28;20027;-76
2024/03/21 02:14:11;;;;;;;;;;;8.80;82.50;;;;;;5098323;28;20461;-76
2024/03/21 02:16:43;;;;;;;;;;;8.70;82.50;;;;;;5101531;28;20389;-74
2024/03/21 02:19:17;;;;;;;;;;;8.80;82.40;;;;;;5101645;28;19931;-75
2024/03/21 02:24:37;;;;;;;;;;;8.70;82.40;;;;;;5100950;28;19923;-76
2024/03/21 02:27:10;;;;;;;;;;;8.70;82.50;;;;;;5102223;28;19932;-77
2024/03/21 02:29:42;;;;;;;;;;;8.70;82.60;;;;;;5099199;28;19938;-76
2024/03/21 02:32:15;;;;;;;;;;;8.60;82.60;;;;;;5096153;28;21038;-77
2024/03/21 02:34:48;;;;;;;;;;;8.60;82.70;;;;;;5101114;28;21394;-77
2024/03/21 02:37:28;;;;;;;;;;;8.60;82.80;;;;;;5101243;28;19930;-76
2024/03/21 02:40:01;;;;;;;;;;;8.60;82.80;;;;;;5101051;28;19932;-75
2024/03/21 02:42:34;;;;;;;;;;;8.60;82.80;;;;;;5101574;28;19931;-75
2024/03/21 02:45:06;;;;;;;;;;;8.60;82.80;;;;;;5091868;28;19932;-76
2024/03/21 02:47:39;;;;;;;;;;;8.60;82.80;;;;;;5099308;28;19924;-74
2024/03/21 02:50:11;;;;;;;;;;;8.50;82.80;;;;;;5101256;28;19967;-77
2024/03/21 02:52:46;;;;;;;;;;;8.50;82.80;;;;;;5099968;28;19924;-77
2024/03/21 02:55:18;;;;;;;;;;;8.50;82.60;;;;;;5100765;28;19963;-76
2024/03/21 02:57:45;;;;;;;;;;;8.50;82.70;;;;;;5100046;28;20008;-76
2024/03/21 03:00:17;;;;;;;;;;;8.50;82.70;;;;;;5100230;28;19924;-76
2024/03/21 03:02:51;;;;;;;;;;;8.50;82.70;;;;;;5097339;28;19924;-76
2024/03/21 03:05:22;;;;;;;;;;;8.40;82.70;;;;;;5100187;28;20396;-76
2024/03/21 03:07:57;;;;;;;;;;;8.40;82.70;;;;;;5101631;28;19934;-76
2024/03/21 03:10:30;;;;;;;;;;;8.40;82.70;;;;;;5100919;28;19928;-74
2024/03/21 03:13:03;;;;;;;;;;;8.40;82.80;;;;;;5100393;28;19924;-78
2024/03/21 03:15:34;;;;;;;;;;;8.40;82.80;;;;;;5097239;28;19982;-79
2024/03/21 03:18:08;;;;;;;;;;;8.30;82.90;;;;;;5101132;28;19935;-74
2024/03/21 03:20:40;;;;;;;;;;;8.30;82.90;;;;;;5098931;28;20280;-75
2024/03/21 03:23:14;;;;;;;;;;;8.30;82.90;;;;;;5099739;28;19979;-62
2024/03/21 03:25:46;;;;;;;;;;;8.30;82.90;;;;;;5099903;28;19934;-62
2024/03/21 03:28:18;;;;;;;;;;;8.30;82.80;;;;;;5098514;28;19924;-61
2024/03/21 03:30:51;;;;;;;;;;;8.30;82.80;;;;;;5097330;28;19928;-62
2024/03/21 03:36:16;;;;;;;;;;;8.20;82.80;;;;;;5099086;28;19924;-60
2024/03/21 03:38:50;;;;;;;;;;;8.20;82.80;;;;;;5097960;28;20379;-61
2024/03/21 03:41:24;;;;;;;;;;;8.20;82.80;;;;;;5098932;28;19959;-62
2024/03/21 04:32:02;;;;;;;;;;;8.10;84.00;;;;;;5095071;28;19930;-58
2024/03/21 04:34:34;;;;;;;;;;;8.10;84.00;;;;;;5096989;28;19984;-59
2024/03/21 04:37:07;;;;;;;;;;;8.10;83.90;;;;;;5096898;28;19977;-58
2024/03/21 04:39:41;;;;;;;;;;;8.00;83.90;;;;;;5098607;28;20910;-58
2024/03/21 04:42:14;;;;;;;;;;;8.10;83.90;;;;;;5096938;28;19927;-57
2024/03/21 04:44:48;;;;;;;;;;;8.00;83.90;;;;;;5097255;28;20267;-58
2024/03/21 04:47:22;;;;;;;;;;;8.00;83.90;;;;;;5096438;28;20375;-57
2024/03/21 04:49:56;;;;;;;;;;;8.00;84.00;;;;;;5098512;28;19931;-59
2024/03/21 04:52:28;;;;;;;;;;;8.00;84.00;;;;;;5097325;28;19952;-58
2024/03/21 04:55:01;;;;;;;;;;;8.00;84.00;;;;;;5098492;28;19931;-57
2024/03/21 04:57:33;;;;;;;;;;;8.00;84.00;;;;;;5097463;28;20010;-59
2024/03/21 05:00:10;;;;;;;;;;;7.90;84.10;;;;;;5094088;28;19932;-57
2024/03/21 05:02:45;;;;;;;;;;;8.00;84.10;;;;;;5094744;28;19967;-58
2024/03/21 05:05:18;;;;;;;;;;;7.90;84.10;;;;;;5090655;28;19924;-58
2024/03/21 05:07:51;;;;;;;;;;;8.00;84.10;;;;;;5096761;28;19934;-58
2024/03/21 05:10:23;;;;;;;;;;;7.90;84.20;;;;;;5096065;28;19973;-58
2024/03/21 05:12:57;;;;;;;;;;;8.00;84.20;;;;;;5077410;28;19962;-58
2024/03/21 05:15:22;;;;;;;;;;;7.90;84.30;;;;;;5096756;28;19928;-58
2024/03/21 05:17:57;;;;;;;;;;;7.90;84.30;;;;;;5092737;28;20405;-58
2024/03/21 05:20:30;;;;;;;;;;;7.90;84.30;;;;;;5095633;28;19924;-58
2024/03/21 05:23:03;;;;;;;;;;;7.90;84.30;;;;;;5095122;28;19932;-58
2024/03/21 05:25:35;;;;;;;;;;;7.90;84.40;;;;;;5096764;28;20393;-58
2024/03/21 05:28:08;;;;;;;;;;;7.90;84.40;;;;;;5094676;28;19931;-58
2024/03/21 05:30:40;;;;;;;;;;;7.90;84.30;;;;;;5096392;28;19959;-58
2024/03/21 05:33:14;;;;;;;;;;;7.90;84.50;;;;;;5095787;28;19927;-58
2024/03/21 05:35:47;;;;;;;;;;;7.90;84.50;;;;;;5091728;28;19960;-58
2024/03/21 05:38:20;;;;;;;;;;;7.90;84.60;;;;;;5093199;28;20396;-59
2024/03/21 05:40:52;;;;;;;;;;;7.90;84.60;;;;;;5096799;28;19981;-58
2024/03/21 05:43:25;;;;;;;;;;;7.90;84.80;;;;;;5096195;28;20028;-61
2024/03/21 05:45:57;;;;;;;;;;;8.00;84.90;;;;;;5088527;28;19935;-60
2024/03/21 05:48:25;;;;;;;;;;;8.00;84.90;;;;;;5096363;28;19928;-60
2024/03/21 05:50:57;;;;;;;;;;;8.00;85.00;;;;;;5091503;28;19959;-61
2024/03/21 05:53:30;;;;;;;;;;;8.00;85.10;;;;;;5094496;28;20000;-59
2024/03/21 05:56:04;;;;;;;;;;;8.00;85.10;;;;;;5095870;28;19939;-59
2024/03/21 05:58:37;;;;;;;;;;;8.00;85.10;;;;;;5095245;28;19935;-61
2024/03/21 06:01:22;;;;;;;;;;;8.10;85.10;;;;;;5095124;28;20430;-60
2024/03/21 06:03:57;;;;;;;;;;;8.00;85.10;;;;;;5094258;28;20363;-61
2024/03/21 06:06:30;;;;;;;;;;;8.10;85.20;;;;;;5093496;28;20387;-61
2024/03/21 06:09:05;;;;;;;;;;;8.10;85.20;;;;;;5100475;28;20298;-61
2024/03/21 06:11:38;;;;;;;;;;;8.10;85.20;;;;;;5099504;28;19935;-61
2024/03/21 06:14:11;;;;;;;;;;;8.10;85.30;;;;;;5096320;28;19934;-61
2024/03/21 06:16:43;;;;;;;;;;;8.20;85.40;;;;;;5096879;28;19992;-60
2024/03/21 06:19:17;;;;;;;;;;;8.20;85.30;;;;;;5096851;28;19932;-64
2024/03/21 06:21:50;;;;;;;;;;;8.20;85.30;;;;;;5099267;28;20005;-60
2024/03/21 06:24:23;;;;;;;;;;;8.30;85.30;;;;;;5098734;28;19925;-61
2024/03/21 06:26:55;;;;;;;;;;;8.30;85.40;;;;;;5099270;28;20015;-59
2024/03/21 06:29:28;;;;;;;;;;;8.30;85.50;;;;;;5099150;28;20591;-61
2024/03/21 06:32:01;;;;;;;;;;;8.40;85.30;;;;;;5089989;28;20055;-61
2024/03/21 06:34:29;;;;;;;;;;;8.30;85.40;;;;;;5099042;28;20113;-60
2024/03/21 06:37:01;;;;;;;;;;;8.40;85.30;;;;;;5099341;28;19935;-60
2024/03/21 06:39:34;;;;;;;;;;;8.40;85.40;;;;;;5099025;28;20254;-61
2024/03/21 06:42:06;;;;;;;;;;;8.40;85.40;;;;;;5085913;28;20386;-61
2024/03/21 06:44:40;;;;;;;;;;;8.40;85.40;;;;;;5114125;27;20318;-60
2024/03/21 06:47:12;;;;;;;;;;;8.40;85.30;;;;;;5093306;28;19932;-59
2024/03/21 06:49:41;;;;;;;;;;;8.50;85.60;;;;;;5095558;28;19951;-59
2024/03/21 06:52:14;;;;;;;;;;;8.50;85.40;;;;;;5098045;28;19928;-59
2024/03/21 06:54:47;;;;;;;;;;;8.50;85.40;;;;;;5098349;28;20500;-57
2024/03/21 06:57:53;;;;;;;;;;;8.60;85.60;;;;;;5097777;28;19932;-58
2024/03/21 07:00:27;;;;;;;;;;;8.60;85.50;;;;;;5097909;28;20034;-58
2024/03/21 07:02:53;;;;;;;;;;;8.80;84.80;;;;;;5098419;28;19985;-58
2024/03/21 07:05:27;;;;;;;;;;;8.80;84.80;;;;;;5098116;28;19958;-58
2024/03/21 07:08:01;;;;;;;;;;;8.90;84.80;;;;;;5098137;28;19988;-57
2024/03/21 07:10:35;;;;;;;;;;;8.90;84.20;;;;;;5099203;28;19932;-57
2024/03/21 07:13:07;;;;;;;;;;;8.90;84.30;;;;;;5096760;28;20294;-58
2024/03/21 07:15:41;;;;;;;;;;;8.90;84.50;;;;;;5095853;28;19955;-58
2024/03/21 07:18:14;;;;;;;;;;;8.90;85.20;;;;;;5096149;28;19928;-58
2024/03/21 07:20:55;;;;;;;;;;;8.90;85.00;;;;;;5094149;28;19924;-58
2024/03/21 07:23:29;;;;;;;;;;;8.90;85.10;;;;;;5096816;28;20019;-58
2024/03/21 07:26:01;;;;;;;;;;;8.90;85.20;;;;;;5097404;28;20069;-58
2024/03/21 07:28:34;;;;;;;;;;;9.00;85.00;;;;;;5097813;28;19969;-58
2024/03/21 07:31:06;;;;;;;;;;;9.00;84.80;;;;;;5097780;28;19928;-57
2024/03/21 07:33:39;;;;;;;;;;;9.10;84.80;;;;;;5097857;28;19977;-58
2024/03/21 07:36:12;;;;;;;;;;;9.10;84.60;;;;;;5094457;28;19924;-58
2024/03/21 07:38:46;;;;;;;;;;;9.20;84.70;;;;;;5097074;28;19927;-57
2024/03/21 07:41:18;;;;;;;;;;;9.30;84.70;;;;;;5096762;28;19957;-58
2024/03/21 07:43:51;;;;;;;;;;;9.30;84.50;;;;;;5098626;28;19977;-57
2024/03/21 07:46:23;;;;;;;;;;;9.30;84.30;;;;;;5096132;28;19924;-57
2024/03/21 07:48:57;;;;;;;;;;;9.30;84.80;;;;;;5097351;28;19996;-58
2024/03/21 07:51:30;;;;;;;;;;;9.40;85.50;;;;;;5095617;28;19928;-58
2024/03/21 07:54:04;;;;;;;;;;;9.40;85.40;;;;;;5094685;28;20658;-58
2024/03/21 07:56:37;;;;;;;;;;;9.40;85.20;;;;;;5097370;28;20340;-58
2024/03/21 07:59:10;;;;;;;;;;;9.40;85.50;;;;;;5096949;28;19992;-57
2024/03/21 08:02:38;;;;;;;;;;;9.40;85.10;;;;;;5074966;28;19954;-61
2024/03/21 08:05:36;;;;;;;;;;;9.40;85.70;;;;;;5090686;28;19935;-61
2024/03/21 08:08:11;;;;;;;;;;;9.40;85.10;;;;;;5095010;28;19946;-61
2024/03/21 08:10:37;;;;;;;;;;;9.50;85.30;;;;;;5097333;28;20430;-61
2024/03/21 08:13:10;;;;;;;;;;;9.50;85.50;;;;;;5095876;28;19932;-60
2024/03/21 08:15:42;;;;;;;;;;;9.60;85.50;;;;;;5094530;28;19932;-62
2024/03/21 08:18:15;;;;;;;;;;;9.60;85.80;;;;;;5096793;28;19927;-61
2024/03/21 08:20:48;;;;;;;;;;;9.70;85.70;;;;;;5094706;28;19924;-61
2024/03/21 08:23:22;;;;;;;;;;;9.80;85.50;;;;;;5090683;28;20055;-61
2024/03/21 08:25:55;;;;;;;;;;;10.00;85.80;;;;;;5094266;28;19943;-60
2024/03/21 08:32:02;;;;;;;;;;;10.40;85.70;;;;;;5092576;28;19957;-60
2024/03/21 08:34:35;;;;;;;;;;;10.70;85.70;;;;;;5095770;28;20043;-60
2024/03/21 08:37:08;;;;;;;;;;;10.90;85.50;;;;;;5094145;28;19928;-61
2024/03/21 08:39:41;;;;;;;;;;;11.10;85.30;;;;;;5095935;28;19936;-62
2024/03/21 08:42:15;;;;;;;;;;;11.30;84.90;;;;;;5097219;28;19928;-60
2024/03/21 08:45:00;;;;;;;;;;;11.50;84.70;;;;;;5095810;28;20015;-62
2024/03/21 08:47:33;;;;;;;;;;;11.70;84.30;;;;;;5096864;28;19924;-60
2024/03/21 08:50:06;;;;;;;;;;;11.90;84.10;;;;;;5096960;28;19923;-61
2024/03/21 08:52:39;;;;;;;;;;;11.90;84.00;;;;;;5094497;28;19927;-61
2024/03/21 08:55:13;;;;;;;;;;;11.80;83.90;;;;;;5077796;28;20259;-61
2024/03/21 08:58:20;;;;;;;;;;;11.90;83.90;;;;;;5095827;28;20069;-60
2024/03/21 09:00:52;;;;;;;;;;;11.90;84.00;;;;;;5096772;28;19961;-61
2024/03/21 09:03:25;;;;;;;;;;;11.90;84.00;;;;;;5096088;28;19924;-60
2024/03/21 09:05:57;;;;;;;;;;;12.00;83.70;;;;;;5096119;28;19938;-61
2024/03/21 09:08:34;;;;;;;;;;;12.10;83.50;;;;;;5093757;28;19963;-61
2024/03/21 09:11:07;;;;;;;;;;;12.10;83.50;;;;;;5097031;28;20016;-61
2024/03/21 09:13:41;;;;;;;;;;;12.10;83.30;;;;;;5097557;28;19927;-58
2024/03/21 09:16:13;;;;;;;;;;;12.20;83.20;;;;;;5093484;28;20018;-58
2024/03/21 09:18:46;;;;;;;;;;;12.20;83.00;;;;;;5095853;28;19932;-58
2024/03/21 09:21:18;;;;;;;;;;;12.30;82.90;;;;;;5091972;28;20357;-59
2024/03/21 09:23:51;;;;;;;;;;;12.30;82.60;;;;;;5095885;28;19924;-57
2024/03/21 09:26:24;;;;;;;;;;;12.40;82.60;;;;;;5095633;28;19924;-58
2024/03/21 09:28:58;;;;;;;;;;;12.50;82.20;;;;;;5094571;28;19940;-58
2024/03/21 09:31:30;;;;;;;;;;;12.60;81.90;;;;;;5095589;28;19958;-59
2024/03/21 09:34:03;;;;;;;;;;;12.90;81.00;;;;;;5095545;28;19938;-59
2024/03/21 09:36:35;;;;;;;;;;;13.20;80.20;;;;;;5093937;28;20484;-59
2024/03/21 09:39:09;;;;;;;;;;;13.50;79.50;;;;;;5076922;28;19928;-57
2024/03/21 09:41:43;;;;;;;;;;;13.50;79.70;;;;;;5098244;28;19934;-58
2024/03/21 09:44:16;;;;;;;;;;;13.60;79.20;;;;;;5097049;28;19932;-62
2024/03/21 09:46:49;;;;;;;;;;;13.70;78.50;;;;;;5100503;28;20484;-59
2024/03/21 09:49:23;;;;;;;;;;;13.90;78.00;;;;;;5099522;28;20261;-58
2024/03/21 09:51:55;;;;;;;;;;;14.10;77.50;;;;;;5097845;28;19927;-60
2024/03/21 09:54:30;;;;;;;;;;;14.30;76.90;;;;;;5098837;28;20485;-60
2024/03/21 09:57:05;;;;;;;;;;;14.60;76.90;;;;;;5095834;28;19924;-60
2024/03/21 09:59:32;;;;;;;;;;;14.80;75.90;;;;;;5065362;28;19966;-58
2024/03/21 10:02:07;;;;;;;;;;;15.00;75.90;;;;;;5098564;28;19936;-59
2024/03/21 10:04:41;;;;;;;;;;;15.10;75.40;;;;;;5082284;28;20447;-60
2024/03/21 10:07:17;;;;;;;;;;;15.20;74.90;;;;;;5099597;28;20345;-60
2024/03/21 10:09:54;;;;;;;;;;;15.30;74.80;;;;;;5084836;28;19924;-59
2024/03/21 10:12:35;;;;;;;;;;;15.30;74.60;;;;;;5100341;28;19970;-60
2024/03/21 10:15:11;;;;;;;;;;;15.30;73.90;;;;;;5090112;28;19935;-58
2024/03/21 10:17:43;;;;;;;;;;;15.30;73.20;;;;;;5094543;28;19987;-58
2024/03/21 10:20:16;;;;;;;;;;;15.30;73.30;;;;;;5079313;28;19924;-61
2024/03/21 10:22:48;;;;;;;;;;;15.30;73.10;;;;;;5097939;28;20154;-68
2024/03/21 10:25:21;;;;;;;;;;;15.20;72.70;;;;;;5093885;28;19968;-66
2024/03/21 10:27:55;;;;;;;;;;;15.20;72.50;;;;;;5089706;28;19928;-65
2024/03/21 10:30:29;;;;;;;;;;;15.20;72.30;;;;;;5097495;28;19928;-67
2024/03/21 10:33:03;;;;;;;;;;;15.30;72.40;;;;;;5096731;28;20011;-68
2024/03/21 10:35:36;;;;;;;;;;;15.60;71.80;;;;;;5097413;28;20019;-67
2024/03/21 10:38:12;;;;;;;;;;;15.80;70.60;;;;;;5079217;28;19963;-67
2024/03/21 10:40:47;;;;;;;;;;;15.80;70.70;;;;;;5076178;28;19934;-67
2024/03/21 10:43:21;;;;;;;;;;;15.70;70.40;;;;;;5081750;28;19949;-67
2024/03/21 10:45:55;;;;;;;;;;;15.90;69.20;;;;;;5081003;28;19940;-66
2024/03/21 10:48:28;;;;;;;;;;;16.10;69.20;;;;;;5088923;28;20074;-67
2024/03/21 10:51:09;;;;;;;;;;;16.30;68.70;;;;;;5091624;28;19939;-66
2024/03/21 10:53:51;;;;;;;;;;;16.10;68.80;;;;;;5092304;28;19934;-68
2024/03/21 10:56:25;;;;;;;;;;;16.10;68.70;;;;;;5089041;28;19942;-67
2024/03/21 10:58:59;;;;;;;;;;;16.00;69.40;;;;;;5093775;28;19924;-68
2024/03/21 11:04:51;;;;;;;;;;;16.20;69.40;;;;;;5091086;28;20016;-67
2024/03/21 11:07:30;;;;;;;;;;;16.50;68.70;;;;;;5084789;28;19933;-68
2024/03/21 11:10:04;;;;;;;;;;;16.60;68.00;;;;;;5078279;28;19934;-67
2024/03/21 11:12:37;;;;;;;;;;;16.70;67.90;;;;;;5075777;28;19932;-67
2024/03/21 11:15:12;;;;;;;;;;;16.80;67.50;;;;;;5084768;28;19931;-67
2024/03/21 11:18:01;;;;;;;;;;;16.90;67.70;;;;;;5092860;28;19990;-67
2024/03/21 11:20:34;;;;;;;;;;;17.00;67.70;;;;;;5091861;28;19926;-68
2024/03/21 11:23:08;;;;;;;;;;;17.10;67.50;;;;;;5093352;28;19935;-66
2024/03/21 11:25:42;;;;;;;;;;;17.00;67.50;;;;;;5091755;28;19928;-68
2024/03/21 11:28:15;;;;;;;;;;;16.90;67.40;;;;;;5096020;28;19969;-65
2024/03/21 11:30:49;;;;;;;;;;;16.80;66.80;;;;;;5094164;28;20026;-68
2024/03/21 11:33:22;;;;;;;;;;;16.90;66.70;;;;;;5095256;28;19985;-76
2024/03/21 11:35:56;;;;;;;;;;;16.80;66.50;;;;;;5096506;28;19959;-74
2024/03/21 11:38:28;;;;;;;;;;;16.70;66.10;;;;;;5096068;28;20007;-74
2024/03/21 11:41:01;;;;;;;;;;;16.60;66.90;;;;;;5096576;28;19995;-77
2024/03/21 11:43:35;;;;;;;;;;;16.60;66.40;;;;;;5098086;28;20283;-75
2024/03/21 11:46:11;;;;;;;;;;;16.50;66.90;;;;;;5097354;28;20462;-76
2024/03/21 11:48:43;;;;;;;;;;;16.40;66.80;;;;;;5090376;28;19946;-76
2024/03/21 11:51:14;;;;;;;;;;;16.50;66.40;;;;;;5098801;28;19924;-76
2024/03/21 11:53:48;;;;;;;;;;;16.60;66.80;;;;;;5097636;28;20018;-74
2024/03/21 11:56:59;;;;;;;;;;;16.60;66.30;;;;;;5091858;28;19928;-74
2024/03/21 11:59:57;;;;;;;;;;;16.50;66.40;;;;;;5059387;28;19980;-76
2024/03/21 12:02:42;;;;;;;;;;;16.40;66.20;;;;;;5098940;28;19928;-75
2024/03/21 12:05:14;;;;;;;;;;;16.20;66.50;;;;;;5099265;28;19932;-76
2024/03/21 12:07:47;;;;;;;;;;;16.30;66.90;;;;;;5098558;28;20378;-77
2024/03/21 12:10:19;;;;;;;;;;;16.40;66.40;;;;;;5093287;28;20010;-77
2024/03/21 12:12:52;;;;;;;;;;;16.60;66.70;;;;;;5095779;28;20294;-75
2024/03/21 12:15:24;;;;;;;;;;;16.70;66.60;;;;;;5095122;28;19932;-77
2024/03/21 12:17:59;;;;;;;;;;;16.90;66.20;;;;;;5098369;28;19924;-75
2024/03/21 12:20:32;;;;;;;;;;;16.90;66.90;;;;;;5094747;28;19971;-75
2024/03/21 12:26:46;;;;;;;;;;;17.00;64.20;;;;;;5037008;28;19937;-77
2024/03/21 12:29:19;;;;;;;;;;;16.90;64.60;;;;;;5094491;28;19931;-75
2024/03/21 12:31:52;;;;;;;;;;;16.80;63.40;;;;;;5097467;28;19923;-78
2024/03/21 12:34:39;;;;;;;;;;;16.80;63.40;;;;;;5093431;28;22238;-75
2024/03/21 12:37:19;;;;;;;;;;;16.70;63.90;;;;;;5096675;28;20305;-76
2024/03/21 12:39:52;;;;;;;;;;;16.80;63.70;;;;;;5098186;28;20317;-77
2024/03/21 12:42:19;;;;;;;;;;;16.80;65.10;;;;;;5095636;28;20001;-67
2024/03/21 12:44:51;;;;;;;;;;;16.90;64.90;;;;;;5094624;28;20510;-68
2024/03/21 12:47:25;;;;;;;;;;;17.00;63.90;;;;;;5096294;28;19993;-67
2024/03/21 12:49:58;;;;;;;;;;;17.00;63.40;;;;;;5096217;28;19972;-68
2024/03/21 12:52:38;;;;;;;;;;;17.00;65.10;;;;;;5094548;28;19924;-69
2024/03/21 12:55:20;;;;;;;;;;;16.90;64.80;;;;;;5096958;28;19924;-67
2024/03/21 12:57:54;;;;;;;;;;;17.10;64.30;;;;;;5096405;28;19967;-69
2024/03/21 13:00:26;;;;;;;;;;;17.10;64.50;;;;;;5089454;28;19928;-68
2024/03/21 13:02:59;;;;;;;;;;;17.10;63.40;;;;;;5095924;28;19928;-68
2024/03/21 13:05:26;;;;;;;;;;;17.10;63.50;;;;;;5096133;28;19935;-67
2024/03/21 13:08:01;;;;;;;;;;;17.00;63.50;;;;;;5096444;28;20019;-67
2024/03/21 13:10:33;;;;;;;;;;;17.00;63.30;;;;;;5089313;28;19927;-68
2024/03/21 13:13:07;;;;;;;;;;;17.00;63.20;;;;;;5094217;28;19928;-68
2024/03/21 13:15:39;;;;;;;;;;;17.00;63.70;;;;;;5087641;28;20578;-68
2024/03/21 13:18:12;;;;;;;;;;;17.00;63.20;;;;;;5091241;28;20302;-69
2024/03/21 13:20:45;;;;;;;;;;;16.90;63.00;;;;;;5083526;28;19932;-69
2024/03/21 13:23:19;;;;;;;;;;;16.80;63.20;;;;;;5094462;28;20010;-69
2024/03/21 13:25:51;;;;;;;;;;;16.70;63.20;;;;;;5092768;28;19935;-69
2024/03/21 13:28:24;;;;;;;;;;;16.70;63.10;;;;;;5093584;28;20379;-69
2024/03/21 13:30:56;;;;;;;;;;;16.70;63.60;;;;;;5092975;28;20523;-69
2024/03/21 13:33:29;;;;;;;;;;;16.80;62.90;;;;;;5098737;28;19954;-68
2024/03/21 13:36:02;;;;;;;;;;;16.80;62.60;;;;;;5096461;28;19932;-69
2024/03/21 13:38:36;;;;;;;;;;;16.80;62.20;;;;;;5095622;28;20266;-69
2024/03/21 13:41:08;;;;;;;;;;;16.80;62.70;;;;;;5088631;28;19924;-69
2024/03/21 13:43:41;;;;;;;;;;;16.90;61.40;;;;;;5082899;28;19928;-69
2024/03/21 13:46:15;;;;;;;;;;;16.90;61.50;;;;;;5091171;28;20026;-69
2024/03/21 13:48:48;;;;;;;;;;;16.90;61.50;;;;;;5091381;28;19979;-69
2024/03/21 13:51:21;;;;;;;;;;;16.90;61.10;;;;;;5088544;28;20657;-69
2024/03/21 13:53:55;;;;;;;;;;;17.00;60.80;;;;;;5092115;28;19932;-73
2024/03/21 13:56:28;;;;;;;;;;;16.90;61.10;;;;;;5093993;28;20006;-74
2024/03/21 13:59:03;;;;;;;;;;;16.90;61.30;;;;;;5086831;28;19932;-75
2024/03/21 14:01:35;;;;;;;;;;;16.90;60.90;;;;;;5098041;28;19939;-75
2024/03/21 14:04:11;;;;;;;;;;;16.90;59.80;;;;;;5092847;28;19940;-77
2024/03/21 14:06:44;;;;;;;;;;;16.90;60.20;;;;;;5095735;28;19935;-74
2024/03/21 14:09:18;;;;;;;;;;;16.90;60.70;;;;;;5088205;28;19969;-76
2024/03/21 14:11:50;;;;;;;;;;;16.90;60.50;;;;;;5082012;28;19923;-75
2024/03/21 14:14:24;;;;;;;;;;;16.90;60.40;;;;;;5095235;28;19955;-75
2024/03/21 14:16:56;;;;;;;;;;;17.10;59.60;;;;;;5101953;28;19924;-77
2024/03/21 14:19:29;;;;;;;;;;;17.00;59.40;;;;;;5098971;28;20370;-77
2024/03/21 14:22:03;;;;;;;;;;;17.00;59.80;;;;;;5097451;28;19928;-78
2024/03/21 14:24:37;;;;;;;;;;;17.00;58.70;;;;;;5100956;28;19924;-77
2024/03/21 14:27:09;;;;;;;;;;;17.00;58.90;;;;;;5087537;28;19967;-75
2024/03/21 14:29:43;;;;;;;;;;;16.90;59.20;;;;;;5092732;28;19962;-76
2024/03/21 14:32:15;;;;;;;;;;;16.80;59.60;;;;;;5097371;28;20342;-73
2024/03/21 14:34:50;;;;;;;;;;;16.80;60.10;;;;;;5101660;28;19924;-76
2024/03/21 14:37:23;;;;;;;;;;;16.70;59.20;;;;;;5101198;28;20016;-77
2024/03/21 14:39:57;;;;;;;;;;;16.70;59.90;;;;;;5089570;28;19931;-77
2024/03/21 14:42:29;;;;;;;;;;;16.60;59.50;;;;;;5087893;28;23888;-78
2024/03/21 14:45:02;;;;;;;;;;;16.60;59.90;;;;;;5094199;28;19935;-78
2024/03/21 14:47:34;;;;;;;;;;;16.60;60.00;;;;;;5093924;28;20015;-77
2024/03/21 14:50:08;;;;;;;;;;;16.60;59.60;;;;;;5095949;28;19931;-76
2024/03/21 14:52:42;;;;;;;;;;;16.60;59.40;;;;;;5090417;28;20263;-77
2024/03/21 14:55:15;;;;;;;;;;;16.50;59.70;;;;;;5097362;28;19928;-76
2024/03/21 14:57:47;;;;;;;;;;;16.50;59.70;;;;;;5094239;28;20440;-77
2024/03/21 15:00:29;;;;;;;;;;;16.50;59.70;;;;;;5090989;28;20367;-76
2024/03/21 15:03:04;;;;;;;;;;;16.50;60.10;;;;;;5097521;28;20346;-75
2024/03/21 15:05:37;;;;;;;;;;;16.50;60.90;;;;;;5094561;28;19940;-77
2024/03/21 15:08:10;;;;;;;;;;;16.50;60.50;;;;;;5099757;28;19933;-78
2024/03/21 15:10:44;;;;;;;;;;;16.50;60.50;;;;;;5100370;28;20454;-77
2024/03/21 15:13:16;;;;;;;;;;;16.50;60.60;;;;;;5095223;28;19943;-77
2024/03/21 15:51:44;;;;;;;;;;;16.40;60.90;;;;;;5098747;28;19950;-76
2024/03/21 15:54:16;;;;;;;;;;;16.30;61.00;;;;;;5099229;28;19928;-76
2024/03/21 15:56:49;;;;;;;;;;;16.30;60.70;;;;;;5097981;28;19973;-73
2024/03/21 15:59:21;;;;;;;;;;;16.30;61.10;;;;;;5099618;28;19947;-74
2024/03/21 16:01:54;;;;;;;;;;;16.20;61.20;;;;;;5095518;28;19924;-76
2024/03/21 16:04:26;;;;;;;;;;;16.20;61.40;;;;;;5100481;28;19931;-77
2024/03/21 16:07:00;;;;;;;;;;;16.20;61.60;;;;;;5096940;28;19923;-76
2024/03/21 16:09:35;;;;;;;;;;;16.10;61.80;;;;;;5098281;28;20015;-74
2024/03/21 16:12:09;;;;;;;;;;;16.10;62.00;;;;;;5098672;28;19924;-58
2024/03/21 16:14:41;;;;;;;;;;;16.10;62.80;;;;;;5096506;28;19927;-58
2024/03/21 16:17:08;;;;;;;;;;;16.10;62.70;;;;;;5091677;28;19934;-60
2024/03/21 16:19:40;;;;;;;;;;;16.00;63.10;;;;;;5096887;28;19924;-59
2024/03/21 16:22:14;;;;;;;;;;;15.90;63.40;;;;;;5097150;28;19950;-58
2024/03/21 16:24:47;;;;;;;;;;;15.90;63.50;;;;;;5096492;28;19928;-59
2024/03/21 16:27:20;;;;;;;;;;;15.80;63.80;;;;;;5096570;28;19931;-58
2024/03/21 16:29:52;;;;;;;;;;;15.80;64.10;;;;;;5098167;28;19955;-59
2024/03/21 16:32:31;;;;;;;;;;;15.70;64.30;;;;;;5095617;28;19924;-58
2024/03/21 16:35:04;;;;;;;;;;;15.70;64.50;;;;;;5093728;28;20014;-59
2024/03/21 16:37:39;;;;;;;;;;;15.70;64.80;;;;;;5096813;28;20301;-59
2024/03/21 16:40:13;;;;;;;;;;;15.60;65.40;;;;;;5096593;28;20004;-58
2024/03/21 16:42:46;;;;;;;;;;;15.60;65.20;;;;;;5095107;28;19964;-59